sensor_id;sensor_type;location;lat;lon;timestamp;pressure;altitude;pressure_sealevel;temperature;humidity
48810;BME280;40070;47.322;18.784;2022-10-16T00:00:50;1007.38;;;15.91;61.63
48810;BME280;40070;47.322;18.784;2022-10-16T00:02:52;1007.38;;;15.98;61.31
48810;BME280;40070;47.322;18.784;2022-10-16T00:04:55;1007.40;;;15.86;61.62
48810;BME280;40070;47.322;18.784;2022-10-16T00:06:57;1007.38;;;15.85;61.58
48810;BME280;40070;47.322;18.784;2022-10-16T00:09:00;1007.32;;;15.86;61.59
48810;BME280;40070;47.322;18.784;2022-10-16T00:11:13;1007.34;;;15.67;62.36
48810;BME280;40070;47.322;18.784;2022-10-16T00:13:16;1007.34;;;15.55;62.81
48810;BME280;40070;47.322;18.784;2022-10-16T00:15:18;1007.32;;;15.52;62.63
48810;BME280;40070;47.322;18.784;2022-10-16T00:17:20;1007.27;;;15.62;62.28
48810;BME280;40070;47.322;18.784;2022-10-16T00:19:23;1007.28;;;15.64;62.07
48810;BME280;40070;47.322;18.784;2022-10-16T00:21:26;1007.36;;;15.47;62.21
48810;BME280;40070;47.322;18.784;2022-10-16T00:23:29;1007.38;;;15.50;62.14
48810;BME280;40070;47.322;18.784;2022-10-16T00:25:31;1007.41;;;15.40;62.09
48810;BME280;40070;47.322;18.784;2022-10-16T00:27:34;1007.44;;;15.37;62.23
48810;BME280;40070;47.322;18.784;2022-10-16T00:29:36;1007.42;;;15.27;62.45
48810;BME280;40070;47.322;18.784;2022-10-16T00:31:39;1007.38;;;15.35;62.16
48810;BME280;40070;47.322;18.784;2022-10-16T00:33:41;1007.39;;;15.25;62.33
48810;BME280;40070;47.322;18.784;2022-10-16T00:35:44;1007.40;;;15.17;62.68
48810;BME280;40070;47.322;18.784;2022-10-16T00:37:46;1007.45;;;15.23;62.47
48810;BME280;40070;47.322;18.784;2022-10-16T00:39:49;1007.45;;;15.30;62.17
48810;BME280;40070;47.322;18.784;2022-10-16T00:41:51;1007.46;;;15.23;62.25
48810;BME280;40070;47.322;18.784;2022-10-16T00:43:57;1007.46;;;15.19;62.19
48810;BME280;40070;47.322;18.784;2022-10-16T00:46:03;1007.47;;;15.15;62.21
48810;BME280;40070;47.322;18.784;2022-10-16T00:48:08;1007.49;;;15.12;62.10
48810;BME280;40070;47.322;18.784;2022-10-16T00:50:22;1007.56;;;15.17;61.81
48810;BME280;40070;47.322;18.784;2022-10-16T00:52:26;1007.53;;;15.02;62.14
48810;BME280;40070;47.322;18.784;2022-10-16T00:54:29;1007.50;;;14.91;62.54
48810;BME280;40070;47.322;18.784;2022-10-16T00:56:32;1007.50;;;14.84;62.63
48810;BME280;40070;47.322;18.784;2022-10-16T00:58:35;1007.54;;;14.79;62.79
48810;BME280;40070;47.322;18.784;2022-10-16T01:00:38;1007.61;;;14.79;62.77
48810;BME280;40070;47.322;18.784;2022-10-16T01:02:40;1007.61;;;14.83;62.64
48810;BME280;40070;47.322;18.784;2022-10-16T01:05:00;1007.61;;;14.74;63.16
48810;BME280;40070;47.322;18.784;2022-10-16T01:07:06;1007.67;;;14.72;63.03
48810;BME280;40070;47.322;18.784;2022-10-16T01:09:13;1007.66;;;14.62;63.26
48810;BME280;40070;47.322;18.784;2022-10-16T01:11:22;1007.69;;;14.68;63.32
48810;BME280;40070;47.322;18.784;2022-10-16T01:13:30;1007.67;;;14.69;62.92
48810;BME280;40070;47.322;18.784;2022-10-16T01:15:48;1007.73;;;14.51;63.84
48810;BME280;40070;47.322;18.784;2022-10-16T01:18:00;1007.65;;;14.25;65.06
48810;BME280;40070;47.322;18.784;2022-10-16T01:20:39;1007.73;;;14.23;65.12
48810;BME280;40070;47.322;18.784;2022-10-16T01:22:25;1007.76;;;14.08;65.68
48810;BME280;40070;47.322;18.784;2022-10-16T01:24:33;1007.79;;;13.78;66.35
48810;BME280;40070;47.322;18.784;2022-10-16T01:29:08;1007.82;;;13.83;66.31
48810;BME280;40070;47.322;18.784;2022-10-16T01:31:11;1007.85;;;13.92;65.77
48810;BME280;40070;47.322;18.784;2022-10-16T01:33:17;1007.82;;;14.00;65.08
48810;BME280;40070;47.322;18.784;2022-10-16T01:37:38;1007.82;;;14.00;64.60
48810;BME280;40070;47.322;18.784;2022-10-16T01:39:42;1007.84;;;13.85;64.75
48810;BME280;40070;47.322;18.784;2022-10-16T01:41:47;1007.80;;;14.05;64.28
48810;BME280;40070;47.322;18.784;2022-10-16T01:44:01;1007.79;;;13.86;64.98
48810;BME280;40070;47.322;18.784;2022-10-16T01:46:05;1007.76;;;13.80;64.99
48810;BME280;40070;47.322;18.784;2022-10-16T01:48:08;1007.82;;;13.94;64.24
48810;BME280;40070;47.322;18.784;2022-10-16T01:50:12;1007.89;;;13.94;64.15
48810;BME280;40070;47.322;18.784;2022-10-16T01:52:17;1007.86;;;13.98;63.99
48810;BME280;40070;47.322;18.784;2022-10-16T01:54:20;1007.86;;;13.97;63.79
48810;BME280;40070;47.322;18.784;2022-10-16T01:56:25;1007.85;;;13.85;64.17
48810;BME280;40070;47.322;18.784;2022-10-16T01:58:28;1007.88;;;13.78;64.44
48810;BME280;40070;47.322;18.784;2022-10-16T02:00:32;1007.92;;;13.72;64.51
48810;BME280;40070;47.322;18.784;2022-10-16T02:02:34;1007.94;;;13.78;64.35
48810;BME280;40070;47.322;18.784;2022-10-16T02:04:51;1007.93;;;13.69;64.44
48810;BME280;40070;47.322;18.784;2022-10-16T02:06:55;1007.87;;;13.78;64.21
48810;BME280;40070;47.322;18.784;2022-10-16T02:08:57;1007.89;;;13.72;64.19
48810;BME280;40070;47.322;18.784;2022-10-16T02:11:01;1007.92;;;13.67;64.20
48810;BME280;40070;47.322;18.784;2022-10-16T02:13:09;1007.99;;;13.74;64.16
48810;BME280;40070;47.322;18.784;2022-10-16T02:15:13;1008.06;;;13.80;63.88
48810;BME280;40070;47.322;18.784;2022-10-16T02:17:16;1008.08;;;13.82;64.02
48810;BME280;40070;47.322;18.784;2022-10-16T02:19:19;1008.08;;;13.76;64.37
48810;BME280;40070;47.322;18.784;2022-10-16T02:21:23;1008.11;;;13.62;64.74
48810;BME280;40070;47.322;18.784;2022-10-16T02:25:48;1008.12;;;13.77;64.13
48810;BME280;40070;47.322;18.784;2022-10-16T02:27:56;1008.13;;;13.76;63.94
48810;BME280;40070;47.322;18.784;2022-10-16T02:30:11;1008.13;;;13.81;63.63
48810;BME280;40070;47.322;18.784;2022-10-16T02:32:15;1008.20;;;13.83;63.51
48810;BME280;40070;47.322;18.784;2022-10-16T02:34:20;1008.20;;;13.87;63.26
48810;BME280;40070;47.322;18.784;2022-10-16T02:36:23;1008.18;;;13.79;63.38
48810;BME280;40070;47.322;18.784;2022-10-16T02:38:27;1008.23;;;13.69;63.65
48810;BME280;40070;47.322;18.784;2022-10-16T02:40:30;1008.24;;;13.69;63.55
48810;BME280;40070;47.322;18.784;2022-10-16T02:42:33;1008.23;;;13.60;63.83
48810;BME280;40070;47.322;18.784;2022-10-16T02:44:35;1008.21;;;13.71;63.62
48810;BME280;40070;47.322;18.784;2022-10-16T02:46:38;1008.23;;;13.62;63.66
48810;BME280;40070;47.322;18.784;2022-10-16T02:48:40;1008.23;;;13.48;64.06
48810;BME280;40070;47.322;18.784;2022-10-16T02:50:43;1008.20;;;13.46;64.25
48810;BME280;40070;47.322;18.784;2022-10-16T02:52:45;1008.19;;;13.47;64.24
48810;BME280;40070;47.322;18.784;2022-10-16T02:54:48;1008.24;;;13.43;64.09
48810;BME280;40070;47.322;18.784;2022-10-16T02:56:50;1008.27;;;13.38;63.94
48810;BME280;40070;47.322;18.784;2022-10-16T02:58:53;1008.29;;;13.33;64.19
48810;BME280;40070;47.322;18.784;2022-10-16T03:00:55;1008.28;;;13.35;64.11
48810;BME280;40070;47.322;18.784;2022-10-16T03:02:58;1008.30;;;13.27;64.25
48810;BME280;40070;47.322;18.784;2022-10-16T03:05:00;1008.30;;;13.23;64.47
48810;BME280;40070;47.322;18.784;2022-10-16T03:07:03;1008.31;;;13.25;64.38
48810;BME280;40070;47.322;18.784;2022-10-16T03:09:05;1008.30;;;13.27;64.06
48810;BME280;40070;47.322;18.784;2022-10-16T03:11:08;1008.27;;;13.18;64.20
48810;BME280;40070;47.322;18.784;2022-10-16T03:13:10;1008.28;;;13.09;64.36
48810;BME280;40070;47.322;18.784;2022-10-16T03:15:13;1008.34;;;13.20;63.90
48810;BME280;40070;47.322;18.784;2022-10-16T03:17:15;1008.42;;;13.19;63.92
48810;BME280;40070;47.322;18.784;2022-10-16T03:19:18;1008.41;;;13.15;64.06
48810;BME280;40070;47.322;18.784;2022-10-16T03:21:21;1008.41;;;13.26;64.01
48810;BME280;40070;47.322;18.784;2022-10-16T03:23:23;1008.39;;;13.26;64.01
48810;BME280;40070;47.322;18.784;2022-10-16T03:25:26;1008.38;;;13.18;64.17
48810;BME280;40070;47.322;18.784;2022-10-16T03:27:28;1008.41;;;13.00;64.66
48810;BME280;40070;47.322;18.784;2022-10-16T03:29:31;1008.44;;;13.03;64.49
48810;BME280;40070;47.322;18.784;2022-10-16T03:31:33;1008.50;;;12.96;64.65
48810;BME280;40070;47.322;18.784;2022-10-16T03:33:36;1008.49;;;13.01;64.54
48810;BME280;40070;47.322;18.784;2022-10-16T03:35:38;1008.55;;;13.08;64.42
48810;BME280;40070;47.322;18.784;2022-10-16T03:37:41;1008.58;;;13.17;64.19
48810;BME280;40070;47.322;18.784;2022-10-16T03:39:43;1008.59;;;13.16;64.20
48810;BME280;40070;47.322;18.784;2022-10-16T03:41:46;1008.59;;;13.08;64.68
48810;BME280;40070;47.322;18.784;2022-10-16T03:43:48;1008.63;;;13.01;64.74
48810;BME280;40070;47.322;18.784;2022-10-16T03:45:50;1008.67;;;13.03;64.64
48810;BME280;40070;47.322;18.784;2022-10-16T03:47:53;1008.68;;;13.05;64.38
48810;BME280;40070;47.322;18.784;2022-10-16T03:49:55;1008.72;;;12.99;64.29
48810;BME280;40070;47.322;18.784;2022-10-16T03:51:58;1008.77;;;13.06;64.24
48810;BME280;40070;47.322;18.784;2022-10-16T03:54:00;1008.78;;;12.93;64.65
48810;BME280;40070;47.322;18.784;2022-10-16T03:56:03;1008.84;;;12.90;64.69
48810;BME280;40070;47.322;18.784;2022-10-16T03:58:05;1008.86;;;12.91;64.68
48810;BME280;40070;47.322;18.784;2022-10-16T04:00:08;1008.83;;;13.05;64.27
48810;BME280;40070;47.322;18.784;2022-10-16T04:02:10;1008.82;;;12.99;64.41
48810;BME280;40070;47.322;18.784;2022-10-16T04:04:13;1008.89;;;12.86;64.77
48810;BME280;40070;47.322;18.784;2022-10-16T04:06:15;1008.90;;;12.88;64.73
48810;BME280;40070;47.322;18.784;2022-10-16T04:08:18;1008.89;;;12.92;64.51
48810;BME280;40070;47.322;18.784;2022-10-16T04:10:20;1008.90;;;12.76;64.71
48810;BME280;40070;47.322;18.784;2022-10-16T04:12:23;1008.92;;;12.85;64.63
48810;BME280;40070;47.322;18.784;2022-10-16T04:14:25;1008.89;;;12.83;64.68
48810;BME280;40070;47.322;18.784;2022-10-16T04:16:27;1008.85;;;12.72;65.12
48810;BME280;40070;47.322;18.784;2022-10-16T04:18:30;1008.83;;;12.72;65.08
48810;BME280;40070;47.322;18.784;2022-10-16T04:20:33;1008.78;;;12.67;65.32
48810;BME280;40070;47.322;18.784;2022-10-16T04:22:35;1008.78;;;12.73;65.15
48810;BME280;40070;47.322;18.784;2022-10-16T04:24:38;1008.81;;;12.69;65.08
48810;BME280;40070;47.322;18.784;2022-10-16T04:26:40;1008.82;;;12.76;65.04
48810;BME280;40070;47.322;18.784;2022-10-16T04:28:43;1008.82;;;12.69;65.25
48810;BME280;40070;47.322;18.784;2022-10-16T04:30:45;1008.86;;;12.85;64.79
48810;BME280;40070;47.322;18.784;2022-10-16T04:32:48;1008.85;;;12.70;65.43
48810;BME280;40070;47.322;18.784;2022-10-16T04:34:51;1008.89;;;12.68;65.77
48810;BME280;40070;47.322;18.784;2022-10-16T04:36:53;1008.89;;;12.66;66.03
48810;BME280;40070;47.322;18.784;2022-10-16T04:38:56;1008.86;;;12.79;65.42
48810;BME280;40070;47.322;18.784;2022-10-16T04:40:58;1008.85;;;12.73;65.23
48810;BME280;40070;47.322;18.784;2022-10-16T04:43:01;1008.86;;;12.67;65.15
48810;BME280;40070;47.322;18.784;2022-10-16T04:45:04;1008.87;;;12.70;65.00
48810;BME280;40070;47.322;18.784;2022-10-16T04:47:07;1008.89;;;12.57;65.24
48810;BME280;40070;47.322;18.784;2022-10-16T04:49:09;1008.86;;;12.55;65.46
48810;BME280;40070;47.322;18.784;2022-10-16T04:51:11;1008.89;;;12.67;65.00
48810;BME280;40070;47.322;18.784;2022-10-16T04:53:14;1008.87;;;12.54;65.25
48810;BME280;40070;47.322;18.784;2022-10-16T04:55:16;1008.93;;;12.64;65.09
48810;BME280;40070;47.322;18.784;2022-10-16T04:57:19;1008.96;;;12.59;65.00
48810;BME280;40070;47.322;18.784;2022-10-16T04:59:23;1009.01;;;12.63;64.84
48810;BME280;40070;47.322;18.784;2022-10-16T05:01:25;1009.04;;;12.61;64.94
48810;BME280;40070;47.322;18.784;2022-10-16T05:03:27;1009.02;;;12.59;65.02
48810;BME280;40070;47.322;18.784;2022-10-16T05:05:30;1009.02;;;12.65;64.83
48810;BME280;40070;47.322;18.784;2022-10-16T05:07:32;1008.99;;;12.56;65.21
48810;BME280;40070;47.322;18.784;2022-10-16T05:09:35;1009.04;;;12.49;65.55
48810;BME280;40070;47.322;18.784;2022-10-16T05:11:37;1009.02;;;12.58;65.35
48810;BME280;40070;47.322;18.784;2022-10-16T05:13:40;1009.04;;;12.55;65.38
48810;BME280;40070;47.322;18.784;2022-10-16T05:15:42;1009.14;;;12.50;65.62
48810;BME280;40070;47.322;18.784;2022-10-16T05:17:51;1009.15;;;12.46;65.67
48810;BME280;40070;47.322;18.784;2022-10-16T05:19:54;1009.16;;;12.47;65.66
48810;BME280;40070;47.322;18.784;2022-10-16T05:21:56;1009.18;;;12.47;65.76
48810;BME280;40070;47.322;18.784;2022-10-16T05:23:58;1009.18;;;12.49;65.71
48810;BME280;40070;47.322;18.784;2022-10-16T05:26:01;1009.19;;;12.39;66.10
48810;BME280;40070;47.322;18.784;2022-10-16T05:28:03;1009.21;;;12.48;66.04
48810;BME280;40070;47.322;18.784;2022-10-16T05:30:06;1009.22;;;12.44;66.34
48810;BME280;40070;47.322;18.784;2022-10-16T05:32:09;1009.24;;;12.42;66.48
48810;BME280;40070;47.322;18.784;2022-10-16T05:34:11;1009.21;;;12.38;66.77
48810;BME280;40070;47.322;18.784;2022-10-16T05:36:14;1009.21;;;12.44;66.74
48810;BME280;40070;47.322;18.784;2022-10-16T05:38:16;1009.27;;;12.60;66.39
48810;BME280;40070;47.322;18.784;2022-10-16T05:40:19;1009.27;;;12.57;66.50
48810;BME280;40070;47.322;18.784;2022-10-16T05:42:21;1009.25;;;12.71;66.41
48810;BME280;40070;47.322;18.784;2022-10-16T05:44:24;1009.34;;;12.69;66.69
48810;BME280;40070;47.322;18.784;2022-10-16T05:46:26;1009.37;;;12.84;66.33
48810;BME280;40070;47.322;18.784;2022-10-16T05:48:29;1009.41;;;12.80;66.22
48810;BME280;40070;47.322;18.784;2022-10-16T05:50:32;1009.43;;;12.99;65.89
48810;BME280;40070;47.322;18.784;2022-10-16T05:52:34;1009.43;;;12.95;66.04
48810;BME280;40070;47.322;18.784;2022-10-16T05:54:36;1009.44;;;12.93;66.46
48810;BME280;40070;47.322;18.784;2022-10-16T05:56:39;1009.41;;;12.86;66.92
48810;BME280;40070;47.322;18.784;2022-10-16T05:58:41;1009.41;;;13.12;66.24
48810;BME280;40070;47.322;18.784;2022-10-16T06:00:44;1009.46;;;13.12;65.88
48810;BME280;40070;47.322;18.784;2022-10-16T06:02:46;1009.46;;;13.33;65.35
48810;BME280;40070;47.322;18.784;2022-10-16T06:04:49;1009.55;;;13.27;65.52
48810;BME280;40070;47.322;18.784;2022-10-16T06:06:51;1009.55;;;13.45;65.21
48810;BME280;40070;47.322;18.784;2022-10-16T06:08:54;1009.57;;;13.41;65.23
48810;BME280;40070;47.322;18.784;2022-10-16T06:11:00;1009.60;;;13.41;64.99
48810;BME280;40070;47.322;18.784;2022-10-16T06:13:02;1009.62;;;13.51;64.95
48810;BME280;40070;47.322;18.784;2022-10-16T06:15:05;1009.66;;;13.74;64.46
48810;BME280;40070;47.322;18.784;2022-10-16T06:17:07;1009.69;;;13.52;64.35
48810;BME280;40070;47.322;18.784;2022-10-16T06:19:10;1009.74;;;13.67;64.36
48810;BME280;40070;47.322;18.784;2022-10-16T06:21:19;1009.77;;;13.76;64.36
48810;BME280;40070;47.322;18.784;2022-10-16T06:23:22;1009.83;;;14.15;63.04
48810;BME280;40070;47.322;18.784;2022-10-16T06:25:25;1009.81;;;14.05;62.96
48810;BME280;40070;47.322;18.784;2022-10-16T06:27:27;1009.84;;;13.98;63.45
48810;BME280;40070;47.322;18.784;2022-10-16T06:29:30;1009.86;;;13.97;63.48
48810;BME280;40070;47.322;18.784;2022-10-16T06:31:32;1009.91;;;14.24;62.96
48810;BME280;40070;47.322;18.784;2022-10-16T06:33:35;1009.95;;;14.42;62.96
48810;BME280;40070;47.322;18.784;2022-10-16T06:35:38;1009.94;;;14.41;62.43
48810;BME280;40070;47.322;18.784;2022-10-16T06:37:40;1009.96;;;14.65;61.62
48810;BME280;40070;47.322;18.784;2022-10-16T06:39:42;1009.99;;;14.65;61.51
48810;BME280;40070;47.322;18.784;2022-10-16T06:41:45;1010.07;;;14.57;61.75
48810;BME280;40070;47.322;18.784;2022-10-16T06:43:47;1010.15;;;14.80;61.30
48810;BME280;40070;47.322;18.784;2022-10-16T06:45:51;1010.10;;;14.91;60.72
48810;BME280;40070;47.322;18.784;2022-10-16T06:47:53;1010.08;;;14.90;60.77
48810;BME280;40070;47.322;18.784;2022-10-16T06:49:56;1010.13;;;14.88;61.48
48810;BME280;40070;47.322;18.784;2022-10-16T06:51:58;1010.19;;;15.14;60.12
48810;BME280;40070;47.322;18.784;2022-10-16T06:54:00;1010.25;;;15.11;59.56
48810;BME280;40070;47.322;18.784;2022-10-16T06:56:06;1010.25;;;15.07;58.84
48810;BME280;40070;47.322;18.784;2022-10-16T06:58:09;1010.24;;;14.89;58.56
48810;BME280;40070;47.322;18.784;2022-10-16T07:00:11;1010.30;;;14.98;58.71
48810;BME280;40070;47.322;18.784;2022-10-16T07:02:14;1010.27;;;14.85;58.46
48810;BME280;40070;47.322;18.784;2022-10-16T07:04:16;1010.30;;;15.12;57.83
48810;BME280;40070;47.322;18.784;2022-10-16T07:06:20;1010.30;;;15.37;57.06
48810;BME280;40070;47.322;18.784;2022-10-16T07:08:22;1010.33;;;15.51;57.34
48810;BME280;40070;47.322;18.784;2022-10-16T07:10:25;1010.36;;;15.30;57.33
48810;BME280;40070;47.322;18.784;2022-10-16T07:12:27;1010.36;;;15.13;58.15
48810;BME280;40070;47.322;18.784;2022-10-16T07:14:30;1010.33;;;15.08;58.58
48810;BME280;40070;47.322;18.784;2022-10-16T07:16:32;1010.34;;;15.16;58.15
48810;BME280;40070;47.322;18.784;2022-10-16T07:18:35;1010.32;;;15.11;58.13
48810;BME280;40070;47.322;18.784;2022-10-16T07:20:37;1010.36;;;15.15;58.52
48810;BME280;40070;47.322;18.784;2022-10-16T07:22:40;1010.35;;;15.03;58.05
48810;BME280;40070;47.322;18.784;2022-10-16T07:24:42;1010.38;;;15.10;58.22
48810;BME280;40070;47.322;18.784;2022-10-16T07:26:45;1010.35;;;15.26;57.23
48810;BME280;40070;47.322;18.784;2022-10-16T07:28:47;1010.33;;;15.26;57.77
48810;BME280;40070;47.322;18.784;2022-10-16T07:30:50;1010.32;;;15.26;57.71
48810;BME280;40070;47.322;18.784;2022-10-16T07:32:52;1010.36;;;15.09;57.89
48810;BME280;40070;47.322;18.784;2022-10-16T07:34:55;1010.37;;;15.37;57.49
48810;BME280;40070;47.322;18.784;2022-10-16T07:36:57;1010.39;;;15.58;57.06
48810;BME280;40070;47.322;18.784;2022-10-16T07:38:59;1010.47;;;15.58;56.60
48810;BME280;40070;47.322;18.784;2022-10-16T07:41:03;1010.47;;;15.72;56.15
48810;BME280;40070;47.322;18.784;2022-10-16T07:43:06;1010.56;;;15.75;56.37
48810;BME280;40070;47.322;18.784;2022-10-16T07:45:08;1010.52;;;16.02;55.39
48810;BME280;40070;47.322;18.784;2022-10-16T07:47:10;1010.60;;;15.88;55.14
48810;BME280;40070;47.322;18.784;2022-10-16T07:49:13;1010.64;;;15.98;55.46
48810;BME280;40070;47.322;18.784;2022-10-16T07:51:17;1010.64;;;16.07;55.08
48810;BME280;40070;47.322;18.784;2022-10-16T07:53:20;1010.67;;;16.44;53.75
48810;BME280;40070;47.322;18.784;2022-10-16T07:55:22;1010.66;;;16.59;53.97
48810;BME280;40070;47.322;18.784;2022-10-16T07:57:24;1010.73;;;16.50;53.89
48810;BME280;40070;47.322;18.784;2022-10-16T07:59:27;1010.73;;;16.77;53.39
48810;BME280;40070;47.322;18.784;2022-10-16T08:01:29;1010.75;;;16.78;53.63
48810;BME280;40070;47.322;18.784;2022-10-16T08:03:32;1010.80;;;17.03;53.41
48810;BME280;40070;47.322;18.784;2022-10-16T08:05:34;1010.82;;;17.10;52.70
48810;BME280;40070;47.322;18.784;2022-10-16T08:07:36;1010.86;;;17.30;51.71
48810;BME280;40070;47.322;18.784;2022-10-16T08:09:39;1010.88;;;17.46;51.47
48810;BME280;40070;47.322;18.784;2022-10-16T08:11:41;1010.88;;;17.67;51.64
48810;BME280;40070;47.322;18.784;2022-10-16T08:13:44;1010.87;;;17.66;50.78
48810;BME280;40070;47.322;18.784;2022-10-16T08:15:46;1010.86;;;17.74;50.73
48810;BME280;40070;47.322;18.784;2022-10-16T08:17:55;1010.84;;;17.82;50.41
48810;BME280;40070;47.322;18.784;2022-10-16T08:19:58;1010.86;;;17.69;50.53
48810;BME280;40070;47.322;18.784;2022-10-16T08:22:00;1010.91;;;17.63;51.43
48810;BME280;40070;47.322;18.784;2022-10-16T08:24:03;1010.87;;;17.85;50.93
48810;BME280;40070;47.322;18.784;2022-10-16T08:26:06;1010.85;;;18.05;50.90
48810;BME280;40070;47.322;18.784;2022-10-16T08:28:09;1010.89;;;17.78;50.84
48810;BME280;40070;47.322;18.784;2022-10-16T08:30:12;1010.89;;;17.89;50.66
48810;BME280;40070;47.322;18.784;2022-10-16T08:32:15;1010.93;;;18.16;50.31
48810;BME280;40070;47.322;18.784;2022-10-16T08:34:18;1011.04;;;18.16;50.19
48810;BME280;40070;47.322;18.784;2022-10-16T08:36:20;1011.02;;;18.20;49.66
48810;BME280;40070;47.322;18.784;2022-10-16T08:38:23;1011.04;;;18.15;50.12
48810;BME280;40070;47.322;18.784;2022-10-16T08:40:26;1011.03;;;18.35;49.84
48810;BME280;40070;47.322;18.784;2022-10-16T08:45:00;1010.98;;;18.34;49.80
48810;BME280;40070;47.322;18.784;2022-10-16T08:47:15;1011.02;;;18.37;49.63
48810;BME280;40070;47.322;18.784;2022-10-16T08:49:19;1011.01;;;18.87;49.19
48810;BME280;40070;47.322;18.784;2022-10-16T08:51:23;1011.04;;;18.93;49.38
48810;BME280;40070;47.322;18.784;2022-10-16T08:53:28;1011.03;;;18.70;49.15
48810;BME280;40070;47.322;18.784;2022-10-16T08:55:34;1011.07;;;18.94;48.96
48810;BME280;40070;47.322;18.784;2022-10-16T08:57:39;1011.08;;;19.03;48.20
48810;BME280;40070;47.322;18.784;2022-10-16T08:59:41;1011.09;;;19.22;47.85
48810;BME280;40070;47.322;18.784;2022-10-16T09:01:45;1011.12;;;19.32;47.79
48810;BME280;40070;47.322;18.784;2022-10-16T09:04:01;1011.14;;;19.08;47.48
48810;BME280;40070;47.322;18.784;2022-10-16T09:08:30;1011.13;;;19.49;46.88
48810;BME280;40070;47.322;18.784;2022-10-16T09:10:59;1011.15;;;19.41;47.26
48810;BME280;40070;47.322;18.784;2022-10-16T09:15:23;1011.10;;;19.68;46.60
48810;BME280;40070;47.322;18.784;2022-10-16T09:17:37;1011.11;;;20.01;45.74
48810;BME280;40070;47.322;18.784;2022-10-16T09:19:44;1011.12;;;19.97;46.23
48810;BME280;40070;47.322;18.784;2022-10-16T09:21:48;1011.15;;;19.92;46.31
48810;BME280;40070;47.322;18.784;2022-10-16T09:23:50;1011.14;;;20.21;45.67
48810;BME280;40070;47.322;18.784;2022-10-16T09:25:53;1011.20;;;20.14;46.13
48810;BME280;40070;47.322;18.784;2022-10-16T09:27:57;1011.13;;;20.15;45.54
48810;BME280;40070;47.322;18.784;2022-10-16T09:29:59;1011.13;;;20.20;45.76
48810;BME280;40070;47.322;18.784;2022-10-16T09:32:14;1011.14;;;20.41;45.84
48810;BME280;40070;47.322;18.784;2022-10-16T09:34:32;1011.13;;;19.96;45.77
48810;BME280;40070;47.322;18.784;2022-10-16T09:36:40;1011.13;;;20.21;45.20
48810;BME280;40070;47.322;18.784;2022-10-16T09:38:43;1011.15;;;20.30;44.54
48810;BME280;40070;47.322;18.784;2022-10-16T09:40:46;1011.15;;;20.15;45.46
48810;BME280;40070;47.322;18.784;2022-10-16T09:42:48;1011.14;;;20.50;46.45
48810;BME280;40070;47.322;18.784;2022-10-16T09:44:51;1011.17;;;20.68;44.68
48810;BME280;40070;47.322;18.784;2022-10-16T09:47:03;1011.20;;;21.03;44.67
48810;BME280;40070;47.322;18.784;2022-10-16T09:51:26;1011.24;;;20.93;43.66
48810;BME280;40070;47.322;18.784;2022-10-16T09:53:42;1011.23;;;21.04;44.08
48810;BME280;40070;47.322;18.784;2022-10-16T09:55:51;1011.23;;;21.29;44.04
48810;BME280;40070;47.322;18.784;2022-10-16T09:57:54;1011.24;;;21.40;43.37
48810;BME280;40070;47.322;18.784;2022-10-16T09:59:57;1011.25;;;21.35;43.23
48810;BME280;40070;47.322;18.784;2022-10-16T10:02:04;1011.24;;;21.71;43.27
48810;BME280;40070;47.322;18.784;2022-10-16T10:04:13;1011.22;;;21.42;43.27
48810;BME280;40070;47.322;18.784;2022-10-16T10:06:23;1011.23;;;21.37;43.17
48810;BME280;40070;47.322;18.784;2022-10-16T10:08:27;1011.21;;;21.51;43.15
48810;BME280;40070;47.322;18.784;2022-10-16T10:10:30;1011.24;;;21.82;42.48
48810;BME280;40070;47.322;18.784;2022-10-16T10:12:33;1011.17;;;22.23;41.91
48810;BME280;40070;47.322;18.784;2022-10-16T10:14:37;1011.16;;;22.50;42.18
48810;BME280;40070;47.322;18.784;2022-10-16T10:16:40;1011.20;;;22.30;41.90
48810;BME280;40070;47.322;18.784;2022-10-16T10:18:42;1011.16;;;22.25;41.43
48810;BME280;40070;47.322;18.784;2022-10-16T10:20:45;1011.09;;;22.60;41.70
48810;BME280;40070;47.322;18.784;2022-10-16T10:22:47;1011.04;;;22.55;41.28
48810;BME280;40070;47.322;18.784;2022-10-16T10:24:56;1011.08;;;22.13;41.85
48810;BME280;40070;47.322;18.784;2022-10-16T10:27:07;1011.07;;;22.25;42.08
48810;BME280;40070;47.322;18.784;2022-10-16T10:36:13;1010.95;;;22.34;42.31
48810;BME280;40070;47.322;18.784;2022-10-16T10:45:28;1010.98;;;22.73;40.15
48810;BME280;40070;47.322;18.784;2022-10-16T10:50:00;1010.94;;;22.51;41.25
48810;BME280;40070;47.322;18.784;2022-10-16T11:01:10;1010.91;;;22.78;40.90
48810;BME280;40070;47.322;18.784;2022-10-16T11:05:44;1010.86;;;23.11;40.30
48810;BME280;40070;47.322;18.784;2022-10-16T11:07:58;1010.90;;;23.14;40.24
48810;BME280;40070;47.322;18.784;2022-10-16T11:10:11;1010.84;;;23.19;40.54
48810;BME280;40070;47.322;18.784;2022-10-16T11:12:19;1010.88;;;22.82;40.52
48810;BME280;40070;47.322;18.784;2022-10-16T11:14:35;1010.87;;;22.96;40.87
48810;BME280;40070;47.322;18.784;2022-10-16T11:16:40;1010.83;;;22.99;41.05
48810;BME280;40070;47.322;18.784;2022-10-16T11:21:04;1010.82;;;22.78;41.64
48810;BME280;40070;47.322;18.784;2022-10-16T11:23:16;1010.77;;;22.71;40.53
48810;BME280;40070;47.322;18.784;2022-10-16T11:25:24;1010.77;;;22.29;41.82
48810;BME280;40070;47.322;18.784;2022-10-16T11:27:47;1010.78;;;22.40;41.97
48810;BME280;40070;47.322;18.784;2022-10-16T11:29:53;1010.79;;;22.19;41.85
48810;BME280;40070;47.322;18.784;2022-10-16T11:31:59;1010.79;;;22.15;41.82
48810;BME280;40070;47.322;18.784;2022-10-16T11:34:08;1010.72;;;22.03;41.78
48810;BME280;40070;47.322;18.784;2022-10-16T11:37:17;1010.69;;;22.14;41.82
48810;BME280;40070;47.322;18.784;2022-10-16T11:38:41;1010.70;;;22.03;42.31
48810;BME280;40070;47.322;18.784;2022-10-16T11:40:45;1010.73;;;21.92;42.30
48810;BME280;40070;47.322;18.784;2022-10-16T11:42:54;1010.77;;;21.95;42.95
48810;BME280;40070;47.322;18.784;2022-10-16T11:45:07;1010.73;;;21.80;42.89